Time;durP1;ratioP1;P1;durP2;ratioP2;P2;SDS_P1;SDS_P2;PMS_P1;PMS_P2;Temp;Humidity;BMP_temperature;BMP_pressure;BME280_temperature;BME280_humidity;BME280_pressure;Samples;Min_cycle;Max_cycle;Signal;HPM_P1;HPM_P2
2023/08/10 00:01:54;;;;;;;5.68;1.98;;;21.60;88.30;;;;;;5095944;28;20024;-78
2023/08/10 00:04:20;;;;;;;7.93;2.80;;;21.60;88.70;;;;;;5082506;28;20028;-76
2023/08/10 00:06:45;;;;;;;5.93;2.40;;;21.60;89.30;;;;;;5075520;28;20041;-78
2023/08/10 00:09:11;;;;;;;4.97;2.55;;;21.60;89.60;;;;;;5075566;28;20099;-78
2023/08/10 00:11:38;;;;;;;7.55;2.40;;;21.60;89.90;;;;;;5075503;28;20025;-78
2023/08/10 00:14:04;;;;;;;6.65;2.67;;;21.60;90.00;;;;;;5075312;28;20027;-78
2023/08/10 00:16:31;;;;;;;3.95;2.30;;;21.60;90.10;;;;;;5075318;28;20032;-77
2023/08/10 00:18:57;;;;;;;4.80;2.30;;;21.50;90.20;;;;;;5075529;28;20367;-78
2023/08/10 00:21:23;;;;;;;6.68;2.35;;;21.50;90.30;;;;;;5075490;28;20036;-78
2023/08/10 00:23:48;;;;;;;12.32;2.60;;;21.50;90.40;;;;;;5075419;28;20017;-79
2023/08/10 00:26:14;;;;;;;4.18;2.50;;;21.40;90.40;;;;;;5075754;28;20047;-78
2023/08/10 00:28:40;;;;;;;8.05;2.60;;;21.40;90.60;;;;;;5057808;28;20055;-79
2023/08/10 00:31:06;;;;;;;9.40;3.08;;;21.40;90.60;;;;;;5075788;28;20369;-78
2023/08/10 00:33:33;;;;;;;5.57;2.60;;;21.40;90.70;;;;;;5075978;28;20021;-78
2023/08/10 00:36:03;;;;;;;6.93;2.42;;;21.40;90.70;;;;;;5075496;28;20175;-79
2023/08/10 01:03:08;;;;;;;5.53;2.15;;;21.20;90.90;;;;;;4975368;28;20045;-78
2023/08/10 01:05:44;;;;;;;2.17;1.48;;;21.20;90.90;;;;;;5011867;28;20034;-78
2023/08/10 01:08:22;;;;;;;6.80;2.10;;;21.20;90.80;;;;;;5059820;28;20115;-78
2023/08/10 01:11:18;;;;;;;3.13;1.30;;;21.20;90.70;;;;;;5074609;28;20128;-78
2023/08/10 01:14:01;;;;;;;3.22;1.50;;;21.20;90.60;;;;;;5065706;28;20032;-78
2023/08/10 01:16:28;;;;;;;2.25;1.52;;;21.20;90.50;;;;;;5056028;28;20429;-78
2023/08/10 01:18:55;;;;;;;6.78;1.73;;;21.20;90.40;;;;;;5074254;28;20032;-77
2023/08/10 01:21:45;;;;;;;2.60;1.30;;;21.20;90.20;;;;;;5073466;28;20120;-78
2023/08/10 01:24:27;;;;;;;5.25;1.50;;;21.20;90.10;;;;;;5073992;28;20021;-78
2023/08/10 01:26:55;;;;;;;3.15;1.45;;;21.20;89.80;;;;;;5073746;28;20553;-76
2023/08/10 01:29:22;;;;;;;2.60;1.30;;;21.20;89.70;;;;;;5055755;28;20395;-78
2023/08/10 01:31:48;;;;;;;2.13;1.45;;;21.20;89.30;;;;;;5073913;28;20449;-77
2023/08/10 01:34:14;;;;;;;4.90;1.85;;;21.20;89.30;;;;;;5074067;28;20025;-77
2023/08/10 01:36:40;;;;;;;2.30;1.45;;;21.20;89.20;;;;;;5073480;28;20401;-77
2023/08/10 01:39:06;;;;;;;3.30;1.55;;;21.20;89.10;;;;;;5073878;28;20471;-75
2023/08/10 01:41:32;;;;;;;5.20;1.50;;;21.20;89.10;;;;;;5056193;28;20547;-78
2023/08/10 01:43:58;;;;;;;3.85;1.40;;;21.20;89.00;;;;;;5073598;28;20020;-78
2023/08/10 01:46:26;;;;;;;2.90;1.80;;;21.20;88.80;;;;;;5073666;28;20060;-77
2023/08/10 01:48:53;;;;;;;4.68;1.65;;;21.20;88.90;;;;;;5073744;28;20529;-78
2023/08/10 01:51:25;;;;;;;5.00;1.75;;;21.20;88.90;;;;;;5073934;28;20118;-77
2023/08/10 01:53:53;;;;;;;4.78;1.80;;;21.20;88.90;;;;;;5073682;28;20024;-78
2023/08/10 01:56:19;;;;;;;1.95;1.33;;;21.20;89.00;;;;;;5073287;28;20029;-78
2023/08/10 01:58:45;;;;;;;3.35;1.45;;;21.20;89.00;;;;;;5073517;28;20147;-78
2023/08/10 02:01:11;;;;;;;3.30;1.60;;;21.20;88.90;;;;;;5073535;28;20031;-78
2023/08/10 02:03:37;;;;;;;4.32;1.98;;;21.20;88.90;;;;;;5073351;28;20009;-78
2023/08/10 02:06:03;;;;;;;5.18;2.00;;;21.20;88.70;;;;;;5073541;28;20060;-78
2023/08/10 02:08:29;;;;;;;2.63;1.70;;;21.20;88.50;;;;;;5073817;28;20029;-77
2023/08/10 02:11:09;;;;;;;4.70;1.83;;;21.20;88.50;;;;;;5073767;28;20078;-78
2023/08/10 02:13:35;;;;;;;9.32;1.90;;;21.20;88.50;;;;;;5073009;28;20474;-78
2023/08/10 02:26:32;;;;;;;2.55;1.77;;;21.20;88.30;;;;;;5010443;28;20160;-74
2023/08/10 02:29:17;;;;;;;2.92;1.70;;;21.20;88.50;;;;;;5011177;28;20042;-79
2023/08/10 02:32:22;;;;;;;3.13;2.03;;;21.20;88.60;;;;;;5008833;28;20088;-78
2023/08/10 02:35:00;;;;;;;5.47;1.75;;;21.20;88.50;;;;;;5011103;28;20036;-79
2023/08/10 02:38:09;;;;;;;6.28;2.35;;;21.10;88.60;;;;;;5011211;28;20441;-78
2023/08/10 02:40:41;;;;;;;4.10;1.92;;;21.10;88.70;;;;;;5010273;28;20037;-78
2023/08/10 02:43:07;;;;;;;4.47;2.13;;;21.10;88.80;;;;;;5063316;28;20394;-78
2023/08/10 02:45:33;;;;;;;3.72;1.75;;;21.10;88.80;;;;;;5072714;28;20390;-77
2023/08/10 02:47:59;;;;;;;4.32;1.75;;;21.10;88.70;;;;;;5072762;28;20386;-78
2023/08/10 02:50:25;;;;;;;2.55;1.88;;;21.10;88.70;;;;;;5072749;28;20025;-78
2023/08/10 02:52:51;;;;;;;6.55;1.95;;;21.00;88.90;;;;;;5072546;28;20108;-78
2023/08/10 02:55:17;;;;;;;3.65;1.80;;;21.00;89.00;;;;;;5072662;28;20035;-78
2023/08/10 02:57:43;;;;;;;2.85;1.70;;;21.00;89.10;;;;;;5072522;28;20021;-78
2023/08/10 03:00:12;;;;;;;4.45;1.70;;;21.00;89.10;;;;;;5054375;28;20036;-78
2023/08/10 03:02:39;;;;;;;4.30;1.80;;;21.00;89.20;;;;;;5072389;28;20378;-78
2023/08/10 03:05:05;;;;;;;4.45;1.77;;;21.00;89.30;;;;;;5072559;28;20028;-78
2023/08/10 03:07:31;;;;;;;4.22;2.42;;;20.90;89.20;;;;;;5072116;28;20032;-78
2023/08/10 03:09:57;;;;;;;3.33;1.65;;;21.00;89.50;;;;;;5071905;28;20029;-78
2023/08/10 03:12:23;;;;;;;3.85;1.77;;;20.90;89.50;;;;;;5072363;28;20067;-79
2023/08/10 03:14:49;;;;;;;2.08;1.70;;;20.90;89.30;;;;;;5072287;28;20032;-78
2023/08/10 03:17:15;;;;;;;3.70;1.67;;;20.90;89.20;;;;;;5072179;28;20032;-77
2023/08/10 03:19:44;;;;;;;3.10;2.03;;;20.90;89.20;;;;;;5072437;28;20126;-78
2023/08/10 03:22:10;;;;;;;2.03;1.60;;;20.90;89.30;;;;;;5072547;28;20490;-78
2023/08/10 03:24:37;;;;;;;3.67;1.70;;;20.90;89.30;;;;;;5073474;28;20063;-78
2023/08/10 03:27:03;;;;;;;3.88;2.20;;;20.90;89.60;;;;;;5075998;28;20038;-79
2023/08/10 03:29:28;;;;;;;3.15;1.65;;;20.90;89.50;;;;;;5076438;28;20020;-76
2023/08/10 03:31:54;;;;;;;2.83;2.10;;;20.90;89.50;;;;;;5076219;28;20025;-78
2023/08/10 03:34:20;;;;;;;2.05;1.60;;;20.80;89.60;;;;;;5076406;28;20048;-78
2023/08/10 03:36:46;;;;;;;4.30;1.80;;;20.90;89.70;;;;;;5075941;28;20516;-78
2023/08/10 03:39:12;;;;;;;2.28;1.60;;;20.90;89.70;;;;;;5058105;28;20024;-79
2023/08/10 03:41:38;;;;;;;3.88;1.60;;;20.80;89.60;;;;;;5076641;28;20029;-78
2023/08/10 03:44:04;;;;;;;5.10;1.63;;;20.80;89.50;;;;;;5076549;28;20024;-78
2023/08/10 03:46:29;;;;;;;3.35;2.10;;;20.80;89.60;;;;;;5076113;28;20110;-78
2023/08/10 03:48:55;;;;;;;4.47;2.10;;;20.80;89.60;;;;;;5076605;28;20478;-78
2023/08/10 03:51:21;;;;;;;4.40;2.00;;;20.70;89.40;;;;;;5076209;28;20029;-76
2023/08/10 03:54:32;;;;;;;3.25;1.88;;;20.80;89.00;;;;;;5076638;28;20017;-79
2023/08/10 04:01:12;;;;;;;;;;;;;;;;;;;;;
2023/08/10 04:13:52;;;;;;;7.18;2.40;;;20.90;87.90;;;;;;5013964;28;20041;-78
2023/08/10 04:19:30;;;;;;;3.83;1.80;;;20.90;88.10;;;;;;5012749;28;20559;-79
2023/08/10 04:21:56;;;;;;;4.25;1.60;;;20.90;88.70;;;;;;5013489;28;20369;-78
2023/08/10 04:24:23;;;;;;;4.82;1.75;;;20.90;88.20;;;;;;5035572;28;20561;-79
2023/08/10 04:26:48;;;;;;;3.25;1.60;;;20.90;88.30;;;;;;5057510;28;20459;-78
2023/08/10 04:29:16;;;;;;;5.90;1.70;;;20.90;88.40;;;;;;5075267;28;20095;-78
2023/08/10 04:31:42;;;;;;;3.15;1.92;;;20.90;88.80;;;;;;5075527;28;20025;-77
2023/08/10 04:34:08;;;;;;;3.63;1.73;;;20.80;88.80;;;;;;5057526;28;20383;-79
2023/08/10 04:36:34;;;;;;;3.47;1.70;;;20.80;89.00;;;;;;5073948;28;20052;-79
2023/08/10 04:39:00;;;;;;;8.80;2.30;;;20.80;89.30;;;;;;5057318;28;20059;-78
2023/08/10 04:41:26;;;;;;;2.38;1.80;;;20.80;89.30;;;;;;5075298;28;20050;-79
2023/08/10 04:43:51;;;;;;;3.88;1.80;;;20.80;89.20;;;;;;5075081;28;20021;-79
2023/08/10 04:46:17;;;;;;;5.00;2.05;;;20.80;89.00;;;;;;5075015;28;20029;-77
2023/08/10 04:48:43;;;;;;;3.30;1.58;;;20.80;89.00;;;;;;5074909;28;20103;-77
2023/08/10 04:51:09;;;;;;;3.50;2.10;;;20.80;88.90;;;;;;5074982;28;20040;-78
2023/08/10 04:53:34;;;;;;;3.90;2.22;;;20.80;88.60;;;;;;5075165;28;20024;-77
2023/08/10 04:56:00;;;;;;;3.20;2.05;;;20.80;88.50;;;;;;5074890;28;20028;-77
2023/08/10 04:58:26;;;;;;;5.55;1.98;;;20.80;88.50;;;;;;5074700;28;20049;-76
2023/08/10 05:00:52;;;;;;;5.55;1.73;;;20.80;88.40;;;;;;5074588;28;20035;-77
2023/08/10 05:03:20;;;;;;;4.70;2.00;;;20.70;88.30;;;;;;5074692;28;20021;-77
2023/08/10 05:05:46;;;;;;;3.03;1.77;;;20.80;88.30;;;;;;5074465;28;20074;-77
2023/08/10 05:08:12;;;;;;;2.50;1.77;;;20.80;88.50;;;;;;5074652;28;20548;-77
2023/08/10 05:10:38;;;;;;;8.40;1.73;;;20.80;88.80;;;;;;5074654;28;20028;-77
2023/08/10 05:13:04;;;;;;;5.13;2.10;;;20.80;88.90;;;;;;5074481;28;20038;-77
2023/08/10 05:15:30;;;;;;;4.05;2.10;;;20.90;89.00;;;;;;5074538;28;20071;-78
2023/08/10 05:17:56;;;;;;;5.35;1.83;;;20.80;89.20;;;;;;5074445;28;20021;-78
2023/08/10 05:20:22;;;;;;;2.83;1.90;;;20.80;89.30;;;;;;5074221;28;20035;-77
2023/08/10 05:22:49;;;;;;;2.47;1.70;;;20.90;89.60;;;;;;5074648;28;20024;-77
2023/08/10 05:25:15;;;;;;;4.88;1.90;;;20.90;89.60;;;;;;5075102;28;20032;-78
2023/08/10 05:27:41;;;;;;;6.47;1.90;;;20.90;89.50;;;;;;5074829;28;20039;-78
2023/08/10 05:30:11;;;;;;;4.82;1.73;;;20.90;89.30;;;;;;5074965;28;20366;-78
2023/08/10 05:32:49;;;;;;;2.80;2.00;;;20.90;89.00;;;;;;5074575;28;20028;-78
2023/08/10 05:36:08;;;;;;;4.55;1.77;;;20.90;89.00;;;;;;5074226;28;20024;-77
2023/08/10 05:39:10;;;;;;;8.02;2.15;;;20.90;88.80;;;;;;4992488;28;20393;-78
2023/08/10 05:41:58;;;;;;;6.72;2.22;;;20.90;88.30;;;;;;4934059;29;20055;-77
2023/08/10 05:52:17;;;;;;;3.50;1.98;;;21.00;88.00;;;;;;4874265;28;20036;-77
2023/08/10 05:55:12;;;;;;;2.58;1.90;;;21.00;88.00;;;;;;4967186;28;20122;-78
2023/08/10 05:57:45;;;;;;;4.68;2.10;;;21.10;88.00;;;;;;4934214;29;20044;-76
2023/08/10 06:00:14;;;;;;;3.47;1.60;;;21.10;88.20;;;;;;5048980;28;20398;-76
2023/08/10 06:02:41;;;;;;;2.78;2.03;;;21.10;88.40;;;;;;5053799;28;20024;-77
2023/08/10 06:05:07;;;;;;;4.25;2.15;;;21.20;88.50;;;;;;5053553;28;20032;-72
2023/08/10 06:07:33;;;;;;;2.78;1.92;;;21.20;88.50;;;;;;5053074;28;20029;-75
2023/08/10 06:10:00;;;;;;;3.92;1.90;;;21.20;88.10;;;;;;5053059;28;20021;-77
2023/08/10 06:12:26;;;;;;;3.30;2.00;;;21.30;87.80;;;;;;5053178;28;20032;-77
2023/08/10 06:14:51;;;;;;;4.45;2.05;;;21.30;87.70;;;;;;5053107;28;20045;-77
2023/08/10 06:17:17;;;;;;;2.95;1.67;;;21.40;87.20;;;;;;5053075;28;20112;-78
2023/08/10 06:19:53;;;;;;;4.30;1.55;;;21.40;87.00;;;;;;5053469;28;20036;-77
2023/08/10 06:22:20;;;;;;;2.83;1.92;;;21.40;87.00;;;;;;5053349;28;20040;-77
2023/08/10 06:24:46;;;;;;;5.32;1.85;;;21.40;86.90;;;;;;5053140;28;20479;-76
2023/08/10 06:27:12;;;;;;;4.70;2.10;;;21.50;87.20;;;;;;5053072;28;20494;-77
2023/08/10 06:29:39;;;;;;;3.35;1.80;;;21.60;87.50;;;;;;5052977;28;20025;-76
2023/08/10 06:32:09;;;;;;;5.95;1.80;;;21.60;87.20;;;;;;5053059;28;20032;-76
2023/08/10 06:34:35;;;;;;;3.45;2.20;;;21.70;86.90;;;;;;5053042;28;20368;-76
2023/08/10 06:37:01;;;;;;;3.08;1.83;;;21.70;86.60;;;;;;5066486;28;20063;-76
2023/08/10 06:39:27;;;;;;;2.25;1.90;;;21.80;86.40;;;;;;5072396;28;20031;-76
2023/08/10 06:41:53;;;;;;;2.33;1.52;;;21.80;85.60;;;;;;5072641;28;20024;-76
2023/08/10 06:44:22;;;;;;;2.85;1.70;;;21.90;85.10;;;;;;5072771;28;20024;-76
2023/08/10 06:46:48;;;;;;;3.17;1.80;;;21.90;84.80;;;;;;5072429;28;20041;-76
2023/08/10 06:49:16;;;;;;;6.45;1.90;;;21.90;84.70;;;;;;5072797;28;20025;-76
2023/08/10 06:51:42;;;;;;;2.80;2.08;;;21.90;84.70;;;;;;5072379;28;20147;-75
2023/08/10 06:54:08;;;;;;;3.78;2.15;;;22.00;84.90;;;;;;5072855;28;20074;-77
2023/08/10 06:56:34;;;;;;;3.42;1.80;;;22.00;85.00;;;;;;5072721;28;20374;-76
2023/08/10 06:59:00;;;;;;;2.70;1.73;;;22.00;84.60;;;;;;5072367;28;20021;-76
2023/08/10 07:01:25;;;;;;;3.17;2.20;;;22.10;84.60;;;;;;5073435;28;20029;-76
2023/08/10 07:03:51;;;;;;;2.47;1.70;;;22.10;84.50;;;;;;5072685;28;20028;-75
2023/08/10 07:06:17;;;;;;;4.50;2.10;;;22.20;84.20;;;;;;5072730;28;20098;-77
2023/08/10 07:08:43;;;;;;;4.47;2.42;;;22.20;83.90;;;;;;5073014;28;20024;-76
2023/08/10 07:25:06;;;;;;;3.40;2.20;;;22.30;82.20;;;;;;4980075;28;20034;-78
2023/08/10 07:30:54;;;;;;;4.25;2.28;;;22.40;81.80;;;;;;4956012;28;20106;-72
2023/08/10 07:36:30;;;;;;;2.60;2.00;;;22.50;81.30;;;;;;5072374;28;20048;-75
2023/08/10 07:38:56;;;;;;;5.40;2.00;;;22.50;81.50;;;;;;5071519;28;20486;-76
2023/08/10 07:41:22;;;;;;;3.20;2.05;;;22.60;81.80;;;;;;5072268;28;20039;-75
2023/08/10 07:43:49;;;;;;;2.30;1.92;;;22.60;81.10;;;;;;5071809;28;20240;-75
2023/08/10 07:46:15;;;;;;;3.33;1.90;;;22.70;80.30;;;;;;5070306;28;20406;-75
2023/08/10 07:48:41;;;;;;;2.15;1.73;;;22.70;79.80;;;;;;5070563;28;20443;-75
2023/08/10 07:51:06;;;;;;;2.58;1.80;;;22.70;80.00;;;;;;5070153;28;20103;-75
2023/08/10 07:53:33;;;;;;;2.10;1.60;;;22.70;79.70;;;;;;5070194;28;20024;-75
2023/08/10 07:56:00;;;;;;;2.72;1.80;;;22.80;78.40;;;;;;5070304;28;20367;-75
2023/08/10 07:58:25;;;;;;;2.67;1.63;;;22.80;78.50;;;;;;5070224;28;20387;-76
2023/08/10 08:00:51;;;;;;;3.42;1.70;;;22.80;78.00;;;;;;5071798;28;20020;-76
2023/08/10 08:03:17;;;;;;;3.47;1.80;;;22.80;78.30;;;;;;5072178;28;20048;-76
2023/08/10 08:05:43;;;;;;;2.55;1.80;;;22.90;78.90;;;;;;5071486;28;20025;-75
2023/08/10 08:08:10;;;;;;;2.60;2.00;;;22.90;78.90;;;;;;5071685;28;20038;-76
2023/08/10 08:10:36;;;;;;;2.97;2.05;;;22.90;78.00;;;;;;5071719;28;20363;-76
2023/08/10 08:13:03;;;;;;;3.17;2.10;;;22.90;78.50;;;;;;5075035;28;20033;-76
2023/08/10 08:15:29;;;;;;;2.65;1.77;;;23.00;78.70;;;;;;5075391;28;20389;-76
2023/08/10 08:18:34;;;;;;;2.42;1.50;;;23.10;78.20;;;;;;5074910;28;20023;-74
2023/08/10 08:21:00;;;;;;;2.38;1.83;;;23.10;77.10;;;;;;5073673;28;20032;-76
2023/08/10 08:23:26;;;;;;;2.45;1.60;;;23.10;76.20;;;;;;5074942;28;20032;-74
2023/08/10 08:25:51;;;;;;;3.83;1.50;;;23.10;75.80;;;;;;5074505;28;20029;-76
2023/08/10 08:28:17;;;;;;;1.92;1.50;;;23.20;75.00;;;;;;5074487;28;20086;-76
2023/08/10 08:30:43;;;;;;;4.28;1.42;;;23.20;75.20;;;;;;5073967;28;20036;-73
2023/08/10 08:33:09;;;;;;;2.15;1.73;;;23.20;76.20;;;;;;5074509;28;20024;-75
2023/08/10 08:35:35;;;;;;;5.32;1.90;;;23.20;76.40;;;;;;5074312;28;20024;-69
2023/08/10 08:38:01;;;;;;;1.60;1.33;;;23.30;75.10;;;;;;5074205;28;20032;-73
2023/08/10 08:40:27;;;;;;;1.75;1.40;;;23.30;75.10;;;;;;5075169;28;20102;-69
2023/08/10 08:42:54;;;;;;;1.95;1.50;;;23.30;74.70;;;;;;5056238;28;20028;-67
2023/08/10 08:45:20;;;;;;;2.05;1.60;;;23.40;74.50;;;;;;5074866;28;20111;-69
2023/08/10 08:48:36;;;;;;;1.40;1.20;;;23.40;74.50;;;;;;5074256;28;20036;-69
2023/08/10 08:54:57;;;;;;;3.53;1.40;;;23.50;73.60;;;;;;4974554;28;20042;-68
2023/08/10 09:01:34;;;;;;;1.55;1.33;;;23.60;73.00;;;;;;4884159;29;20041;-67
2023/08/10 09:04:59;;;;;;;1.70;1.50;;;23.60;72.80;;;;;;4896143;29;20466;-68
2023/08/10 09:08:03;;;;;;;1.45;1.20;;;23.70;71.50;;;;;;4877287;29;20095;-69
2023/08/10 09:14:10;;;;;;;2.03;1.50;;;23.70;71.40;;;;;;4822788;29;20039;-68
2023/08/10 09:16:38;;;;;;;4.90;1.40;;;23.80;71.50;;;;;;4877412;29;20125;-69
2023/08/10 09:19:03;;;;;;;2.17;1.52;;;23.80;71.00;;;;;;4921300;29;20115;-70
2023/08/10 09:21:32;;;;;;;2.15;1.27;;;23.90;70.90;;;;;;5006567;28;20501;-68
2023/08/10 09:23:58;;;;;;;1.60;1.40;;;23.90;70.00;;;;;;5055713;28;20021;-67
2023/08/10 09:26:25;;;;;;;2.50;1.40;;;23.90;70.40;;;;;;5074200;28;20037;-68
2023/08/10 09:28:51;;;;;;;4.15;1.58;;;24.00;70.60;;;;;;5074033;28;20020;-68
2023/08/10 09:31:28;;;;;;;2.10;1.52;;;24.00;70.40;;;;;;5073713;28;20390;-75
2023/08/10 09:33:58;;;;;;;1.98;1.45;;;24.10;71.60;;;;;;5073646;28;20398;-77
2023/08/10 09:36:26;;;;;;;2.85;1.40;;;24.10;70.80;;;;;;5073160;28;20406;-75
2023/08/10 09:38:53;;;;;;;2.38;1.20;;;24.20;69.70;;;;;;5073616;28;20496;-80
2023/08/10 09:41:20;;;;;;;2.40;1.33;;;24.20;69.50;;;;;;5073118;28;20020;-74
2023/08/10 09:43:47;;;;;;;5.53;1.27;;;24.30;69.50;;;;;;5073465;28;20020;-76
2023/08/10 09:46:14;;;;;;;4.57;1.77;;;24.40;69.90;;;;;;5072847;28;20474;-74
2023/08/10 09:48:50;;;;;;;2.78;1.50;;;24.40;69.60;;;;;;5073280;28;20074;-71
2023/08/10 09:51:16;;;;;;;2.35;1.30;;;24.40;67.70;;;;;;5073177;28;20471;-74
2023/08/10 09:53:42;;;;;;;2.65;1.38;;;24.50;67.90;;;;;;5068764;28;20539;-76
2023/08/10 09:56:08;;;;;;;6.75;1.90;;;24.50;67.00;;;;;;5072664;28;20056;-76
2023/08/10 09:58:36;;;;;;;1.95;1.45;;;24.60;67.00;;;;;;5072470;28;20028;-75
2023/08/10 10:01:03;;;;;;;2.45;1.63;;;24.60;67.50;;;;;;5072157;28;20029;-75
2023/08/10 10:03:31;;;;;;;4.32;1.50;;;24.70;66.80;;;;;;5072797;28;20568;-76
2023/08/10 10:05:58;;;;;;;2.58;1.83;;;24.70;66.70;;;;;;5073334;28;20107;-76
2023/08/10 10:08:26;;;;;;;1.42;1.20;;;24.70;66.20;;;;;;5073109;28;20017;-74
2023/08/10 10:10:54;;;;;;;1.83;1.40;;;24.80;66.20;;;;;;5072679;28;20025;-76
2023/08/10 10:13:20;;;;;;;1.35;1.23;;;24.80;65.60;;;;;;5073163;28;20482;-75
2023/08/10 10:15:46;;;;;;;1.73;1.20;;;24.80;65.30;;;;;;5073685;28;20025;-73
2023/08/10 10:18:12;;;;;;;1.60;1.48;;;24.80;64.30;;;;;;5072640;28;20036;-76
2023/08/10 10:20:40;;;;;;;1.75;1.10;;;24.90;65.70;;;;;;5073359;28;20032;-76
2023/08/10 10:23:21;;;;;;;1.80;1.38;;;24.90;64.60;;;;;;5073477;28;20025;-77
2023/08/10 10:26:00;;;;;;;1.38;1.27;;;24.90;64.60;;;;;;5073082;28;20028;-77
2023/08/10 10:28:34;;;;;;;4.43;1.50;;;24.90;64.60;;;;;;5073093;28;20410;-75
2023/08/10 10:32:13;;;;;;;1.63;1.10;;;24.90;64.40;;;;;;5072968;28;20074;-76
2023/08/10 10:35:29;;;;;;;1.95;1.23;;;25.00;64.20;;;;;;5067203;28;20032;-76
2023/08/10 10:42:24;;;;;;;2.45;1.65;;;25.00;63.00;;;;;;5072647;28;20040;-76
2023/08/10 10:45:26;;;;;;;1.50;1.40;;;25.00;59.90;;;;;;5029618;28;20030;-76
2023/08/10 10:48:23;;;;;;;1.40;1.20;;;25.00;59.20;;;;;;5030131;28;20141;-73
2023/08/10 10:51:18;;;;;;;3.17;1.10;;;25.10;60.30;;;;;;5030612;28;20052;-75
2023/08/10 10:53:47;;;;;;;2.40;1.30;;;25.10;60.60;;;;;;5030427;28;20120;-76
2023/08/10 10:56:13;;;;;;;2.85;1.20;;;25.20;59.80;;;;;;5046173;28;20043;-76
2023/08/10 10:58:41;;;;;;;4.15;1.40;;;25.20;60.00;;;;;;5070897;28;20033;-73
2023/08/10 11:01:07;;;;;;;2.42;1.50;;;25.30;60.60;;;;;;5072678;28;20418;-76
2023/08/10 11:03:32;;;;;;;1.23;1.10;;;25.30;58.90;;;;;;5072526;28;20078;-76
2023/08/10 11:05:58;;;;;;;4.32;1.65;;;25.30;58.50;;;;;;5072188;28;20021;-75
2023/08/10 11:08:24;;;;;;;5.47;1.55;;;25.30;59.50;;;;;;5072188;28;20031;-76
2023/08/10 11:10:51;;;;;;;1.83;1.30;;;25.30;59.00;;;;;;5072207;28;20063;-75
2023/08/10 11:13:18;;;;;;;3.20;1.38;;;25.30;59.60;;;;;;5072249;28;20495;-71
2023/08/10 11:15:46;;;;;;;1.98;1.35;;;25.40;60.80;;;;;;5072148;28;20020;-73
2023/08/10 11:18:14;;;;;;;1.92;1.30;;;25.40;60.10;;;;;;5072130;28;20032;-76
2023/08/10 11:20:48;;;;;;;1.77;1.33;;;25.50;60.40;;;;;;5072142;28;20029;-72
2023/08/10 11:23:14;;;;;;;3.03;1.48;;;25.50;60.40;;;;;;5072213;28;20550;-74
2023/08/10 11:25:49;;;;;;;2.78;1.13;;;25.60;60.80;;;;;;5072116;28;20467;-74
2023/08/10 11:28:18;;;;;;;1.20;1.10;;;25.60;59.70;;;;;;5072423;28;20078;-71
2023/08/10 11:30:45;;;;;;;3.25;1.50;;;25.60;60.00;;;;;;5054367;28;20043;-73
2023/08/10 11:33:11;;;;;;;2.50;1.75;;;25.70;60.80;;;;;;5071844;28;20029;-73
2023/08/10 11:35:37;;;;;;;2.00;1.23;;;25.70;60.70;;;;;;5072374;28;20097;-75
2023/08/10 11:38:05;;;;;;;4.45;1.20;;;25.70;61.10;;;;;;5072235;28;20373;-75
2023/08/10 11:40:30;;;;;;;3.67;1.30;;;25.80;61.50;;;;;;5072045;28;20112;-74
2023/08/10 11:43:04;;;;;;;2.60;1.40;;;25.80;61.70;;;;;;5071813;28;20095;-74
2023/08/10 11:45:30;;;;;;;3.47;1.25;;;25.80;60.40;;;;;;5073180;28;20057;-72
2023/08/10 11:47:57;;;;;;;2.17;1.35;;;25.90;60.70;;;;;;5076264;28;20037;-75
2023/08/10 11:50:25;;;;;;;1.55;1.10;;;25.90;59.60;;;;;;5076393;28;20028;-74
2023/08/10 11:53:47;;;;;;;7.00;1.23;;;25.90;60.30;;;;;;5076094;28;20021;-75
2023/08/10 11:57:02;;;;;;;;;;;;;;;;;;;;;
2023/08/10 11:59:44;;;;;;;2.45;1.20;;;26.00;60.40;;;;;;5075926;28;20039;-70
2023/08/10 12:02:17;;;;;;;1.73;1.27;;;26.00;59.60;;;;;;5075570;28;20038;-70
2023/08/10 12:09:00;;;;;;;3.03;1.27;;;26.00;57.80;;;;;;4999987;28;20137;-69
2023/08/10 12:14:54;;;;;;;2.42;1.60;;;25.90;58.00;;;;;;5009877;28;20029;-70
2023/08/10 12:20:43;;;;;;;2.08;1.52;;;25.80;58.40;;;;;;4970645;28;20031;-69
2023/08/10 12:23:09;;;;;;;4.30;1.27;;;25.70;58.70;;;;;;5012996;28;20037;-70
2023/08/10 12:25:35;;;;;;;2.85;1.70;;;25.70;58.40;;;;;;5045696;28;20458;-69
2023/08/10 12:28:01;;;;;;;1.42;1.23;;;25.70;57.70;;;;;;5072590;28;20052;-70
2023/08/10 12:30:27;;;;;;;2.15;1.48;;;25.60;57.40;;;;;;5072350;28;20027;-69
2023/08/10 12:32:53;;;;;;;1.35;1.20;;;25.60;57.50;;;;;;5074292;28;20024;-69
2023/08/10 12:35:19;;;;;;;1.67;1.13;;;25.60;58.00;;;;;;5056547;28;20119;-69
2023/08/10 12:37:50;;;;;;;1.60;1.23;;;25.60;58.00;;;;;;5074239;28;20084;-69
2023/08/10 12:40:16;;;;;;;2.28;1.25;;;25.50;58.60;;;;;;5074298;28;20467;-70
2023/08/10 12:42:45;;;;;;;1.63;1.17;;;25.50;58.60;;;;;;5074150;28;20073;-69
2023/08/10 12:45:13;;;;;;;1.65;1.35;;;25.50;58.80;;;;;;5074444;28;20025;-70
2023/08/10 12:47:40;;;;;;;5.50;1.20;;;25.50;58.90;;;;;;5074336;28;20037;-70
2023/08/10 12:50:11;;;;;;;1.38;1.23;;;25.40;58.60;;;;;;5074201;28;20474;-69
2023/08/10 12:52:37;;;;;;;1.52;1.20;;;25.40;59.40;;;;;;5074207;28;20500;-71
2023/08/10 12:55:04;;;;;;;1.38;1.23;;;25.40;59.60;;;;;;5073867;28;20584;-69
2023/08/10 12:57:30;;;;;;;2.40;1.38;;;25.40;59.70;;;;;;5073098;28;20176;-68
2023/08/10 13:00:01;;;;;;;2.03;1.58;;;25.40;59.80;;;;;;5073080;28;20021;-67
2023/08/10 13:02:27;;;;;;;1.88;1.38;;;25.40;59.30;;;;;;5074334;28;20880;-68
2023/08/10 13:04:53;;;;;;;3.38;1.42;;;25.40;59.60;;;;;;5074040;28;20402;-69
2023/08/10 13:07:20;;;;;;;3.35;1.67;;;25.40;59.60;;;;;;5074087;28;20378;-69
2023/08/10 13:09:45;;;;;;;2.63;1.55;;;25.40;59.90;;;;;;5073969;28;20032;-70
2023/08/10 13:12:12;;;;;;;2.13;1.30;;;25.40;61.10;;;;;;5073639;28;20028;-70
2023/08/10 13:14:39;;;;;;;1.15;1.05;;;25.40;60.20;;;;;;5073799;28;20020;-74
2023/08/10 13:17:06;;;;;;;4.18;1.02;;;25.40;59.70;;;;;;5073637;28;20112;-69
2023/08/10 13:19:35;;;;;;;1.48;1.30;;;25.40;59.70;;;;;;5074614;28;20421;-69
2023/08/10 13:22:02;;;;;;;1.50;1.20;;;25.40;60.40;;;;;;5074690;28;20035;-68
2023/08/10 13:24:28;;;;;;;3.00;1.20;;;25.40;60.20;;;;;;5073768;28;20389;-70
2023/08/10 13:26:54;;;;;;;1.27;1.00;;;25.40;61.00;;;;;;5074077;28;20074;-69
2023/08/10 13:29:20;;;;;;;1.63;1.08;;;25.40;61.20;;;;;;5074209;28;20363;-69
2023/08/10 13:32:11;;;;;;;;;;;;;;;;;;;;;
2023/08/10 13:35:05;;;;;;;1.83;1.10;;;25.50;60.10;;;;;;5073707;28;20021;-69
2023/08/10 13:38:33;;;;;;;1.40;1.10;;;25.50;60.50;;;;;;5073077;28;20052;-69
2023/08/10 13:41:24;;;;;;;1.90;1.08;;;25.50;59.80;;;;;;5030954;28;20141;-69
2023/08/10 13:44:37;;;;;;;1.27;1.00;;;25.50;59.80;;;;;;5031889;28;20044;-70
2023/08/10 13:48:05;;;;;;;1.55;1.25;;;25.50;60.00;;;;;;5023524;28;20049;-70
2023/08/10 13:51:15;;;;;;;3.92;1.40;;;25.50;59.70;;;;;;5003655;28;20438;-70
2023/08/10 13:53:48;;;;;;;1.23;1.10;;;25.50;59.50;;;;;;4952970;29;20035;-70
2023/08/10 13:56:14;;;;;;;5.60;1.30;;;25.60;58.90;;;;;;5023116;28;20087;-70
2023/08/10 13:58:41;;;;;;;2.75;1.15;;;25.50;59.50;;;;;;5063435;28;20398;-70
2023/08/10 14:01:07;;;;;;;2.92;1.40;;;25.50;60.60;;;;;;5055503;28;20363;-70
2023/08/10 14:03:33;;;;;;;2.63;1.17;;;25.50;61.00;;;;;;5073112;28;20684;-71
2023/08/10 14:06:02;;;;;;;2.08;1.10;;;25.60;61.00;;;;;;5073459;28;20038;-71
2023/08/10 14:08:29;;;;;;;4.53;1.40;;;25.70;60.80;;;;;;5073302;28;20021;-71
2023/08/10 14:10:56;;;;;;;2.65;1.17;;;25.70;60.60;;;;;;5055483;28;20461;-70
2023/08/10 14:13:22;;;;;;;3.50;1.20;;;25.80;60.20;;;;;;5073022;28;20035;-71
2023/08/10 14:15:48;;;;;;;1.70;1.10;;;25.80;59.10;;;;;;5072909;28;20020;-70
2023/08/10 14:18:14;;;;;;;6.70;1.30;;;25.90;58.30;;;;;;5073160;28;20510;-70
2023/08/10 14:20:41;;;;;;;2.03;1.17;;;26.00;58.80;;;;;;5073188;28;20028;-70
2023/08/10 14:23:07;;;;;;;3.05;1.20;;;26.00;59.20;;;;;;5073138;28;20020;-69
2023/08/10 14:25:33;;;;;;;2.58;1.30;;;26.00;59.70;;;;;;5091305;28;20493;-71
2023/08/10 14:27:59;;;;;;;1.30;1.20;;;26.00;59.70;;;;;;5093154;28;20036;-71
2023/08/10 14:30:25;;;;;;;2.58;1.63;;;26.10;58.70;;;;;;5093033;28;20116;-71
2023/08/10 14:32:51;;;;;;;6.45;1.73;;;26.10;59.20;;;;;;5093105;28;20035;-71
2023/08/10 14:35:17;;;;;;;3.15;1.13;;;26.20;59.40;;;;;;5086976;22;20098;-77
2023/08/10 14:37:43;;;;;;;1.55;1.25;;;26.10;59.10;;;;;;5032904;28;20022;-78
2023/08/10 14:40:10;;;;;;;1.80;1.38;;;26.10;58.40;;;;;;5032415;28;20044;-80
2023/08/10 14:42:35;;;;;;;1.92;1.13;;;26.10;58.20;;;;;;5032001;28;20033;-78
2023/08/10 14:45:01;;;;;;;1.60;1.20;;;26.10;58.00;;;;;;5032268;28;20014;-79
2023/08/10 14:47:28;;;;;;;5.15;1.70;;;26.10;58.90;;;;;;5032030;28;20080;-79
2023/08/10 14:49:54;;;;;;;1.70;1.30;;;26.10;58.40;;;;;;5031684;28;20056;-77
2023/08/10 14:52:20;;;;;;;1.95;1.23;;;26.20;58.70;;;;;;5032201;28;20022;-77
2023/08/10 14:54:46;;;;;;;1.60;1.25;;;26.20;58.80;;;;;;5031584;28;20021;-77
2023/08/10 14:57:11;;;;;;;1.42;1.23;;;26.20;59.10;;;;;;5035509;28;20032;-77